createdAt,value
2022-09-15T00:01:16.067Z,2.63
2022-09-15T00:03:44.217Z,4.97
2022-09-15T00:06:12.988Z,5.87
2022-09-15T00:08:41.327Z,4.17
2022-09-15T00:11:11.703Z,2.43
2022-09-15T00:13:40.818Z,3.63
2022-09-15T00:16:14.994Z,2.43
2022-09-15T00:18:44.192Z,2.73
2022-09-15T00:21:14.284Z,2.17
2022-09-15T00:23:42.293Z,1.80
2022-09-15T00:26:12.554Z,2.13
2022-09-15T00:28:41.445Z,2.97
2022-09-15T00:31:14.550Z,2.73
2022-09-15T00:33:43.534Z,5.13
2022-09-15T00:36:14.507Z,1.63
2022-09-15T00:38:42.999Z,3.43
2022-09-15T00:41:15.515Z,4.43
2022-09-15T00:43:47.215Z,3.50
2022-09-15T00:46:18.656Z,4.53
2022-09-15T00:48:50.369Z,7.47
2022-09-15T00:51:22.314Z,3.90
2022-09-15T00:53:51.869Z,5.43
2022-09-15T00:56:21.178Z,6.00
2022-09-15T00:58:55.255Z,4.10
2022-09-15T01:01:27.236Z,1.63
2022-09-15T01:03:56.406Z,6.43
2022-09-15T01:06:31.666Z,7.10
2022-09-15T01:09:05.710Z,6.90
2022-09-15T01:11:34.086Z,3.50
2022-09-15T01:14:02.307Z,5.67
2022-09-15T01:16:56.667Z,3.37
2022-09-15T01:19:57.755Z,3.87
2022-09-15T01:22:37.038Z,2.30
2022-09-15T01:25:09.709Z,2.13
2022-09-15T01:28:12.130Z,2.63
2022-09-15T01:30:44.922Z,3.23
2022-09-15T01:33:22.436Z,8.40
2022-09-15T01:35:55.835Z,1.80
2022-09-15T01:38:31.734Z,3.93
2022-09-15T01:41:06.208Z,3.90
2022-09-15T01:43:37.179Z,4.07
2022-09-15T01:46:08.455Z,3.00
2022-09-15T01:48:38.204Z,1.50
2022-09-15T01:51:08.021Z,3.57
2022-09-15T01:53:36.671Z,2.27
2022-09-15T01:56:09.130Z,2.33
2022-09-15T01:58:39.198Z,4.97
2022-09-15T02:01:13.791Z,2.83
2022-09-15T02:03:45.501Z,2.87
2022-09-15T02:06:21.722Z,3.67
2022-09-15T02:08:55.347Z,2.20
2022-09-15T02:11:25.810Z,2.57
2022-09-15T02:14:01.590Z,2.30
2022-09-15T02:16:34.892Z,2.10
2022-09-15T02:19:12.819Z,1.77
2022-09-15T02:21:48.268Z,1.83
2022-09-15T02:24:20.138Z,3.23
2022-09-15T02:26:51.133Z,4.37
2022-09-15T02:29:22.216Z,1.50
2022-09-15T02:31:54.085Z,4.17
2022-09-15T02:34:26.553Z,3.30
2022-09-15T02:36:56.140Z,1.60
2022-09-15T02:39:28.758Z,7.23
2022-09-15T02:41:56.762Z,2.93
2022-09-15T02:44:24.561Z,5.63
2022-09-15T02:46:53.815Z,3.10
2022-09-15T02:49:21.576Z,2.13
2022-09-15T02:51:49.826Z,6.10
2022-09-15T02:54:17.612Z,4.10
2022-09-15T02:56:45.452Z,5.37
2022-09-15T02:59:13.255Z,3.33
2022-09-15T03:01:41.178Z,1.97
2022-09-15T03:04:10.390Z,1.87
2022-09-15T03:06:38.139Z,4.47
2022-09-15T03:09:08.183Z,2.10
2022-09-15T03:11:37.077Z,2.73
2022-09-15T03:14:08.204Z,5.70
2022-09-15T03:16:36.635Z,2.17
2022-09-15T03:19:04.940Z,3.80
2022-09-15T03:21:34.128Z,4.37
2022-09-15T03:24:02.153Z,3.77
2022-09-15T03:26:31.044Z,4.07
2022-09-15T03:28:58.819Z,5.60
2022-09-15T03:31:26.797Z,4.57
2022-09-15T03:33:56.080Z,3.77
2022-09-15T03:36:23.900Z,2.17
2022-09-15T03:38:53.168Z,5.90
2022-09-15T03:41:21.113Z,1.97
2022-09-15T03:43:48.929Z,2.80
2022-09-15T03:46:17.935Z,6.03
2022-09-15T03:48:47.400Z,4.50
2022-09-15T03:51:15.624Z,6.93
2022-09-15T03:53:43.786Z,5.87
2022-09-15T03:56:20.057Z,5.70
2022-09-15T03:58:47.848Z,4.27
2022-09-15T04:01:15.757Z,2.37
2022-09-15T04:03:48.842Z,3.53
2022-09-15T04:06:19.610Z,2.47
2022-09-15T04:12:58.744Z,8.30
2022-09-15T04:15:26.839Z,6.27
2022-09-15T04:17:54.960Z,4.00
2022-09-15T04:20:22.888Z,4.70
2022-09-15T04:22:51.424Z,4.33
2022-09-15T04:25:19.452Z,4.73
2022-09-15T04:27:47.589Z,8.17
2022-09-15T04:30:17.053Z,3.17
2022-09-15T04:32:45.096Z,6.77
2022-09-15T04:35:13.327Z,6.10
2022-09-15T04:37:41.328Z,2.37
2022-09-15T04:40:11.467Z,3.10
2022-09-15T04:42:39.626Z,3.93
2022-09-15T04:45:08.404Z,2.73
2022-09-15T04:47:38.485Z,4.03
2022-09-15T04:50:08.717Z,2.37
2022-09-15T04:52:36.876Z,4.30
2022-09-15T04:55:05.222Z,2.20
2022-09-15T04:57:34.537Z,1.43
2022-09-15T05:00:04.734Z,3.53
2022-09-15T05:02:32.833Z,5.13
2022-09-15T05:05:02.213Z,3.67
2022-09-15T05:07:30.662Z,0.90
2022-09-15T05:09:58.924Z,2.20
2022-09-15T05:12:27.920Z,2.10
2022-09-15T05:14:55.923Z,1.37
2022-09-15T05:17:26.661Z,1.53
2022-09-15T05:19:54.893Z,1.70
2022-09-15T05:22:24.232Z,7.70
2022-09-15T05:24:52.228Z,1.40
2022-09-15T05:27:20.467Z,1.10
2022-09-15T05:29:49.000Z,3.07
2022-09-15T05:32:16.994Z,5.80
2022-09-15T05:34:45.037Z,4.27
2022-09-15T05:37:13.030Z,1.70
2022-09-15T05:39:42.391Z,1.60
2022-09-15T05:42:10.561Z,2.03
2022-09-15T05:44:38.524Z,2.40
2022-09-15T05:47:06.677Z,5.53
2022-09-15T05:49:35.120Z,3.83
2022-09-15T05:52:04.314Z,5.10
2022-09-15T05:54:32.318Z,1.53
2022-09-15T05:57:01.670Z,1.67
2022-09-15T05:59:29.719Z,2.33
2022-09-15T06:01:57.764Z,1.87
2022-09-15T06:04:25.879Z,4.37
2022-09-15T06:06:53.889Z,5.00
2022-09-15T06:09:21.964Z,13.43
2022-09-15T06:11:50.003Z,10.30
2022-09-15T06:14:19.303Z,2.37
2022-09-15T06:16:47.291Z,1.97
2022-09-15T06:19:15.259Z,0.97
2022-09-15T06:21:43.300Z,1.17
2022-09-15T06:24:13.155Z,1.23
2022-09-15T06:26:41.202Z,1.70
2022-09-15T06:29:09.498Z,1.27
2022-09-15T06:31:39.242Z,1.53
2022-09-15T06:34:08.656Z,1.20
2022-09-15T06:36:37.845Z,1.00
2022-09-15T06:39:06.152Z,0.70
2022-09-15T06:41:58.328Z,5.33
2022-09-15T06:44:22.152Z,4.37
2022-09-15T06:46:51.590Z,0.93
2022-09-15T06:49:20.048Z,3.57
2022-09-15T06:51:48.067Z,1.07
2022-09-15T06:54:16.764Z,2.03
2022-09-15T06:56:45.583Z,0.67
2022-09-15T06:59:13.899Z,1.53
2022-09-15T07:01:42.811Z,3.63
2022-09-15T07:04:12.307Z,2.80
2022-09-15T07:06:41.094Z,3.00
2022-09-15T07:09:09.389Z,2.83
2022-09-15T07:11:37.517Z,5.53
2022-09-15T07:14:05.641Z,6.80
2022-09-15T07:16:33.691Z,4.10
2022-09-15T07:19:03.704Z,3.37
2022-09-15T07:21:33.252Z,3.80
2022-09-15T07:24:05.136Z,1.33
2022-09-15T07:26:35.440Z,2.10
2022-09-15T07:29:06.095Z,8.70
2022-09-15T07:31:36.467Z,3.93
2022-09-15T07:34:04.869Z,3.23
2022-09-15T07:36:34.952Z,3.00
2022-09-15T07:39:05.468Z,2.23
2022-09-15T07:41:33.907Z,2.50
2022-09-15T07:44:02.524Z,5.03
2022-09-15T07:46:32.572Z,9.23
2022-09-15T07:49:03.371Z,2.63
2022-09-15T07:51:31.793Z,4.70
2022-09-15T07:54:01.768Z,5.27
2022-09-15T07:56:29.996Z,2.00
2022-09-15T07:58:59.254Z,0.90
2022-09-15T08:01:27.597Z,6.20
2022-09-15T08:03:56.042Z,1.70
2022-09-15T08:06:25.765Z,2.07
2022-09-15T08:08:59.366Z,2.40
2022-09-15T08:11:30.565Z,3.67
2022-09-15T08:14:02.618Z,1.07
2022-09-15T08:16:30.747Z,2.80
2022-09-15T08:18:58.834Z,2.53
2022-09-15T08:21:27.638Z,2.07
2022-09-15T08:23:57.445Z,4.33
2022-09-15T08:26:27.196Z,1.43
2022-09-15T08:28:56.597Z,2.83
2022-09-15T08:31:25.275Z,2.07
2022-09-15T08:33:55.485Z,1.37
2022-09-15T08:36:27.658Z,3.40
2022-09-15T08:38:56.082Z,1.07
2022-09-15T08:41:28.717Z,3.53
2022-09-15T08:44:03.538Z,3.87
2022-09-15T08:46:37.946Z,1.03
2022-09-15T08:49:10.831Z,1.07
2022-09-15T08:51:46.220Z,1.60
2022-09-15T08:54:21.488Z,3.47
2022-09-15T08:56:50.038Z,1.63
2022-09-15T08:59:21.283Z,3.40
2022-09-15T09:02:23.857Z,1.70
2022-09-15T09:05:12.195Z,2.20
2022-09-15T09:07:54.991Z,1.00
2022-09-15T09:10:32.422Z,1.20
2022-09-15T09:13:14.267Z,4.43
2022-09-15T09:16:03.968Z,0.87
2022-09-15T09:19:04.471Z,0.80
2022-09-15T09:21:36.229Z,1.30
2022-09-15T09:24:07.782Z,2.33
2022-09-15T09:26:37.902Z,0.40
2022-09-15T09:29:13.252Z,1.07
2022-09-15T09:31:44.094Z,2.00
2022-09-15T09:34:23.965Z,1.20
2022-09-15T09:36:55.218Z,0.87
2022-09-15T09:39:23.218Z,3.90
2022-09-15T09:41:51.316Z,0.50
2022-09-15T09:44:20.360Z,1.17
2022-09-15T09:46:50.082Z,0.93
2022-09-15T09:49:24.862Z,0.60
2022-09-15T09:51:55.252Z,3.40
2022-09-15T09:54:27.287Z,0.50
2022-09-15T09:56:57.411Z,2.90
2022-09-15T09:59:41.918Z,0.70
2022-09-15T10:02:19.800Z,1.43
2022-09-15T10:04:49.522Z,1.27
2022-09-15T10:07:20.206Z,0.40
2022-09-15T10:09:59.882Z,0.10
2022-09-15T10:12:32.504Z,0.00
2022-09-15T10:15:03.571Z,1.93
2022-09-15T10:17:45.658Z,0.20
2022-09-15T10:20:28.299Z,0.23
2022-09-15T10:23:03.962Z,0.90
2022-09-15T10:25:55.058Z,0.33
2022-09-15T10:28:26.052Z,2.27
2022-09-15T10:31:03.919Z,1.90
2022-09-15T10:33:35.376Z,0.87
2022-09-15T10:36:06.963Z,1.80
2022-09-15T10:38:43.016Z,0.50
2022-09-15T10:41:29.570Z,1.37
2022-09-15T10:44:25.628Z,1.13
2022-09-15T10:47:04.422Z,0.77
2022-09-15T10:49:57.273Z,1.07
2022-09-15T10:52:35.268Z,0.10
2022-09-15T10:55:42.158Z,0.13
2022-09-15T10:58:33.702Z,1.23
2022-09-15T11:01:13.674Z,1.23
2022-09-15T11:04:02.234Z,0.43
2022-09-15T11:06:37.678Z,0.30
2022-09-15T11:09:15.426Z,0.53
2022-09-15T11:11:53.527Z,2.10
2022-09-15T11:14:33.759Z,1.07
2022-09-15T11:17:12.471Z,1.00
2022-09-15T11:20:01.029Z,0.60
2022-09-15T11:22:36.536Z,1.00
2022-09-15T11:25:13.882Z,1.43
2022-09-15T11:27:45.330Z,2.33
2022-09-15T11:30:18.602Z,2.20
2022-09-15T11:32:54.329Z,1.83
2022-09-15T11:35:46.666Z,5.13
2022-09-15T11:38:25.199Z,1.40
2022-09-15T11:41:00.101Z,1.77
2022-09-15T11:43:35.048Z,2.63
2022-09-15T11:46:08.950Z,1.33
2022-09-15T11:48:42.808Z,1.67
2022-09-15T11:51:14.933Z,1.03
2022-09-15T11:53:51.316Z,1.77
2022-09-15T11:56:25.637Z,2.87
2022-09-15T11:59:05.897Z,2.27
2022-09-15T12:01:41.177Z,3.47
2022-09-15T12:04:14.105Z,2.53
2022-09-15T12:06:48.739Z,1.93
2022-09-15T12:09:19.596Z,2.27
2022-09-15T12:11:49.687Z,2.87
2022-09-15T12:14:29.908Z,3.33
2022-09-15T12:16:59.243Z,3.43
2022-09-15T12:19:45.059Z,2.20
2022-09-15T12:22:19.211Z,2.90
2022-09-15T12:25:00.056Z,5.10
2022-09-15T12:27:28.932Z,2.40
2022-09-15T12:29:58.455Z,2.33
2022-09-15T12:32:28.861Z,3.03
2022-09-15T12:35:01.955Z,3.77
2022-09-15T12:37:39.769Z,3.03
2022-09-15T12:40:27.800Z,4.97
2022-09-15T12:42:56.003Z,6.07
2022-09-15T12:45:27.322Z,2.93
2022-09-15T12:47:58.590Z,8.27
2022-09-15T12:50:30.650Z,6.07
2022-09-15T12:53:01.203Z,7.57
2022-09-15T12:55:34.125Z,8.90
2022-09-15T12:58:08.567Z,5.00
2022-09-15T13:00:45.618Z,6.03
2022-09-15T13:03:30.452Z,8.97
2022-09-15T13:06:17.138Z,5.67
2022-09-15T13:08:51.072Z,6.13
2022-09-15T13:11:25.633Z,4.73
2022-09-15T13:14:00.883Z,9.13
2022-09-15T13:16:33.954Z,6.20
2022-09-15T13:19:12.492Z,9.23
2022-09-15T13:21:45.030Z,6.40
2022-09-15T13:24:20.172Z,8.47
2022-09-15T13:26:55.732Z,6.50
2022-09-15T13:29:24.671Z,8.27
2022-09-15T13:32:00.477Z,10.83
2022-09-15T13:35:15.975Z,5.57
2022-09-15T13:38:23.792Z,3.07
2022-09-15T13:41:33.313Z,4.70
2022-09-15T13:44:24.308Z,4.67
2022-09-15T13:47:06.960Z,6.47
2022-09-15T13:49:48.620Z,9.00
2022-09-15T13:52:28.033Z,6.03
2022-09-15T13:55:10.297Z,5.03
2022-09-15T14:00:33.691Z,7.50
2022-09-15T14:03:06.638Z,9.63
2022-09-15T14:05:36.231Z,7.37
2022-09-15T14:08:09.059Z,11.87
2022-09-15T14:10:45.404Z,5.73
2022-09-15T14:13:17.117Z,4.87
2022-09-15T14:16:00.041Z,4.70
2022-09-15T14:18:28.972Z,6.63
2022-09-15T14:21:02.204Z,8.90
2022-09-15T14:23:31.075Z,8.33
2022-09-15T14:26:01.578Z,6.63
2022-09-15T14:28:32.241Z,5.37
2022-09-15T14:31:02.727Z,5.80
2022-09-15T14:33:37.897Z,5.60
2022-09-15T14:36:14.574Z,9.27
2022-09-15T14:38:42.713Z,8.57
2022-09-15T14:41:19.930Z,8.90
2022-09-15T14:43:48.057Z,7.47
2022-09-15T14:46:19.344Z,12.33
2022-09-15T14:48:47.629Z,8.50
2022-09-15T14:51:22.525Z,9.90
2022-09-15T14:53:52.749Z,6.77
2022-09-15T14:56:25.405Z,7.47
2022-09-15T14:58:56.797Z,9.23
2022-09-15T15:01:33.652Z,7.57
2022-09-15T15:04:10.281Z,5.73
2022-09-15T15:06:56.341Z,6.10
2022-09-15T15:09:30.391Z,6.17
2022-09-15T15:12:01.595Z,5.00
2022-09-15T15:14:30.088Z,8.80
2022-09-15T15:17:03.152Z,4.97
2022-09-15T15:19:33.183Z,4.00
2022-09-15T15:22:09.587Z,4.30
2022-09-15T15:24:42.182Z,5.43
2022-09-15T15:27:42.174Z,9.10
2022-09-15T15:30:29.575Z,5.27
2022-09-15T15:33:01.374Z,3.73
2022-09-15T15:35:30.245Z,3.20
2022-09-15T15:38:07.604Z,2.90
2022-09-15T15:40:38.967Z,3.70
2022-09-15T15:43:09.227Z,4.47
2022-09-15T15:45:50.014Z,2.93
2022-09-15T15:48:19.418Z,3.63
2022-09-15T15:50:47.826Z,3.60
2022-09-15T15:53:16.426Z,3.63
2022-09-15T15:55:45.131Z,4.63
2022-09-15T15:58:14.471Z,3.63
2022-09-15T16:00:45.251Z,4.23
2022-09-15T16:03:14.879Z,3.60
2022-09-15T16:05:46.802Z,3.07
2022-09-15T16:08:21.355Z,3.83
2022-09-15T16:10:50.879Z,3.27
2022-09-15T16:13:21.154Z,3.50
2022-09-15T16:15:49.616Z,3.43
2022-09-15T16:18:17.884Z,4.80
2022-09-15T16:20:47.273Z,2.83
2022-09-15T16:23:17.567Z,5.53
2022-09-15T16:25:50.259Z,5.13
2022-09-15T16:28:18.658Z,4.30
2022-09-15T16:30:47.349Z,4.73
2022-09-15T16:33:16.791Z,4.37
2022-09-15T16:35:51.290Z,4.73
2022-09-15T16:38:20.287Z,4.37
2022-09-15T16:40:48.494Z,5.77
2022-09-15T16:43:17.910Z,7.17
2022-09-15T16:45:46.744Z,4.80
2022-09-15T16:48:15.131Z,7.33
2022-09-15T16:51:16.875Z,4.20
2022-09-15T16:53:33.510Z,5.47
2022-09-15T16:56:06.953Z,3.13
2022-09-15T16:58:35.433Z,4.80
2022-09-15T17:01:03.898Z,4.60
2022-09-15T17:03:32.424Z,4.47
2022-09-15T17:06:02.103Z,7.37
2022-09-15T17:08:32.022Z,3.07
2022-09-15T17:11:03.821Z,3.97
2022-09-15T17:13:33.729Z,4.20
2022-09-15T17:16:02.660Z,5.83
2022-09-15T17:18:31.227Z,5.23
2022-09-15T17:20:59.546Z,5.20
2022-09-15T17:23:29.438Z,6.13
2022-09-15T17:25:59.156Z,8.60
2022-09-15T17:28:29.934Z,8.83
2022-09-15T17:30:59.957Z,7.23
2022-09-15T17:33:28.709Z,7.67
2022-09-15T17:35:57.032Z,4.50
2022-09-15T17:38:25.256Z,6.63
2022-09-15T17:40:55.291Z,4.17
2022-09-15T17:43:25.386Z,6.00
2022-09-15T17:45:55.398Z,5.53
2022-09-15T17:48:24.308Z,6.07
2022-09-15T17:50:52.874Z,5.97
2022-09-15T17:53:22.697Z,4.60
2022-09-15T17:55:51.561Z,5.23
2022-09-15T17:58:19.883Z,5.47
2022-09-15T18:00:48.997Z,6.60
2022-09-15T18:03:23.714Z,7.53
2022-09-15T18:05:52.810Z,8.20
2022-09-15T18:08:20.813Z,4.83
2022-09-15T18:10:49.184Z,10.60
2022-09-15T18:13:19.688Z,6.20
2022-09-15T18:15:49.527Z,6.37
2022-09-15T18:18:21.108Z,8.47
2022-09-15T18:20:51.178Z,5.63
2022-09-15T18:23:21.483Z,5.53
2022-09-15T18:25:50.064Z,7.87
2022-09-15T18:28:19.336Z,10.30
2022-09-15T18:30:48.866Z,9.87
2022-09-15T18:33:18.048Z,10.67
2022-09-15T18:35:48.882Z,8.63
2022-09-15T18:38:16.872Z,7.13
2022-09-15T18:40:47.560Z,6.07
2022-09-15T18:43:15.685Z,5.03
2022-09-15T18:45:44.142Z,6.73
2022-09-15T18:48:13.457Z,6.83
2022-09-15T18:50:42.526Z,5.47
2022-09-15T18:53:12.082Z,5.17
2022-09-15T18:55:41.916Z,9.20
2022-09-15T18:58:10.112Z,5.43
2022-09-15T19:00:38.481Z,11.60
2022-09-15T19:03:09.407Z,8.57
2022-09-15T19:05:38.588Z,6.33
2022-09-15T19:08:08.338Z,7.27
2022-09-15T19:10:39.447Z,6.20
2022-09-15T19:13:11.289Z,6.27
2022-09-15T19:15:40.205Z,5.03
2022-09-15T19:18:08.219Z,6.00
2022-09-15T19:20:36.249Z,6.90
2022-09-15T19:23:04.262Z,6.23
2022-09-15T19:25:32.260Z,6.90
2022-09-15T19:28:01.710Z,5.43
2022-09-15T19:30:29.714Z,7.40
2022-09-15T19:32:58.805Z,5.07
2022-09-15T19:35:26.805Z,8.30
2022-09-15T19:37:54.879Z,4.83
2022-09-15T19:40:23.826Z,5.60
2022-09-15T19:42:52.215Z,7.37
2022-09-15T19:45:21.620Z,5.50
2022-09-15T19:47:49.590Z,5.73
2022-09-15T19:50:17.664Z,6.93
2022-09-15T19:52:45.740Z,4.97
2022-09-15T19:55:14.101Z,5.27
2022-09-15T19:57:43.163Z,7.33
2022-09-15T20:00:13.581Z,6.30
2022-09-15T20:02:43.483Z,6.40
2022-09-15T20:05:12.525Z,9.63
2022-09-15T20:07:40.471Z,4.77
2022-09-15T20:10:08.780Z,5.50
2022-09-15T20:12:36.700Z,6.27
2022-09-15T20:15:05.347Z,10.43
2022-09-15T20:17:33.572Z,8.80
2022-09-15T20:20:03.356Z,5.73
2022-09-15T20:22:31.344Z,5.47
2022-09-15T20:24:59.390Z,10.63
2022-09-15T20:27:27.501Z,5.87
2022-09-15T20:29:57.160Z,5.10
2022-09-15T20:32:28.451Z,6.67
2022-09-15T20:34:56.997Z,6.37
2022-09-15T20:37:26.516Z,5.33
2022-09-15T20:39:54.543Z,10.00
2022-09-15T20:42:22.650Z,13.80
2022-09-15T20:44:51.077Z,6.40
2022-09-15T20:47:19.116Z,6.47
2022-09-15T20:49:47.170Z,7.60
2022-09-15T20:52:15.148Z,7.90
2022-09-15T20:54:44.589Z,7.13
2022-09-15T20:57:12.578Z,10.30
2022-09-15T20:59:40.602Z,5.63
2022-09-15T21:02:08.774Z,4.77
2022-09-15T21:04:36.776Z,6.27
2022-09-15T21:07:04.921Z,6.40
2022-09-15T21:09:32.860Z,9.43
2022-09-15T21:12:02.375Z,6.80
2022-09-15T21:14:30.578Z,6.27
2022-09-15T21:16:58.571Z,6.00
2022-09-15T21:19:26.843Z,6.53
2022-09-15T21:21:54.973Z,7.17
2022-09-15T21:24:22.972Z,5.77
2022-09-15T21:27:08.925Z,11.50
2022-09-15T21:29:38.288Z,9.47
2022-09-15T21:32:06.573Z,6.13
2022-09-15T21:34:34.540Z,9.07
2022-09-15T21:37:02.595Z,6.93
2022-09-15T21:39:30.598Z,5.00
2022-09-15T21:41:58.539Z,12.53
2022-09-15T21:44:26.571Z,8.33
2022-09-15T21:46:55.908Z,11.47
2022-09-15T21:49:23.836Z,7.03
2022-09-15T21:51:51.958Z,8.57
2022-09-15T21:54:19.875Z,7.40
2022-09-15T21:56:47.862Z,9.33
2022-09-15T21:59:16.779Z,7.17
2022-09-15T22:01:44.863Z,7.10
2022-09-15T22:04:14.215Z,17.53
2022-09-15T22:06:42.510Z,7.07
2022-09-15T22:09:13.850Z,8.80
2022-09-15T22:11:42.392Z,5.67
2022-09-15T22:14:11.654Z,13.53
2022-09-15T22:16:41.617Z,7.47
2022-09-15T22:19:11.841Z,6.70
2022-09-15T22:21:43.180Z,7.37
2022-09-15T22:24:12.712Z,5.53
2022-09-15T22:26:42.542Z,6.43
2022-09-15T22:29:11.128Z,7.20
2022-09-15T22:31:39.366Z,6.27
2022-09-15T22:34:08.257Z,6.40
2022-09-15T22:36:36.250Z,5.40
2022-09-15T22:39:06.328Z,7.13
2022-09-15T22:41:36.227Z,7.33
2022-09-15T22:44:04.775Z,5.27
2022-09-15T22:46:32.892Z,5.43
2022-09-15T22:49:01.220Z,7.80
2022-09-15T22:51:29.448Z,6.17
2022-09-15T22:53:58.664Z,9.47
2022-09-15T22:56:28.601Z,7.10
2022-09-15T22:58:57.434Z,7.63
2022-09-15T23:01:28.409Z,9.50
2022-09-15T23:03:58.305Z,15.23
2022-09-15T23:06:28.286Z,5.77
2022-09-15T23:08:58.079Z,7.37
2022-09-15T23:11:28.768Z,11.33
2022-09-15T23:13:57.343Z,9.10
2022-09-15T23:16:28.569Z,6.87
2022-09-15T23:18:56.595Z,5.67
2022-09-15T23:21:24.578Z,6.80
2022-09-15T23:23:55.181Z,8.90
2022-09-15T23:26:25.283Z,8.90
2022-09-15T23:28:54.940Z,10.00
2022-09-15T23:31:23.095Z,4.80
2022-09-15T23:33:51.129Z,7.00
2022-09-15T23:36:20.459Z,5.37
2022-09-15T23:38:49.268Z,9.97
2022-09-15T23:41:18.198Z,6.80
2022-09-15T23:43:47.176Z,10.47
2022-09-15T23:46:17.387Z,12.97
2022-09-15T23:48:45.835Z,9.80
2022-09-15T23:51:13.883Z,9.27
2022-09-15T23:53:41.844Z,8.40
2022-09-15T23:56:09.881Z,7.47
2022-09-15T23:58:37.923Z,8.57
